sensor_id;sensor_type;location;lat;lon;timestamp;P1;durP1;ratioP1;P2;durP2;ratioP2
21825;SDS011;11075;47.944;11.776;2023-07-13T00:01:52;5.45;;;2.15;;
21825;SDS011;11075;47.944;11.776;2023-07-13T00:04:21;7.40;;;2.80;;
21825;SDS011;11075;47.944;11.776;2023-07-13T00:06:52;6.93;;;2.40;;
21825;SDS011;11075;47.944;11.776;2023-07-13T00:09:19;3.55;;;2.47;;
21825;SDS011;11075;47.944;11.776;2023-07-13T00:11:53;4.88;;;2.90;;
21825;SDS011;11075;47.944;11.776;2023-07-13T00:14:23;7.15;;;2.70;;
21825;SDS011;11075;47.944;11.776;2023-07-13T00:16:52;5.60;;;3.00;;
21825;SDS011;11075;47.944;11.776;2023-07-13T00:19:19;3.38;;;3.08;;
21825;SDS011;11075;47.944;11.776;2023-07-13T00:21:46;8.65;;;2.60;;
21825;SDS011;11075;47.944;11.776;2023-07-13T00:24:17;5.22;;;2.83;;
21825;SDS011;11075;47.944;11.776;2023-07-13T00:26:50;6.05;;;2.70;;
21825;SDS011;11075;47.944;11.776;2023-07-13T00:29:18;4.63;;;2.42;;
21825;SDS011;11075;47.944;11.776;2023-07-13T00:31:45;3.58;;;2.47;;
21825;SDS011;11075;47.944;11.776;2023-07-13T00:34:12;6.47;;;3.15;;
21825;SDS011;11075;47.944;11.776;2023-07-13T00:36:39;4.65;;;2.60;;
21825;SDS011;11075;47.944;11.776;2023-07-13T00:39:06;3.85;;;2.72;;
21825;SDS011;11075;47.944;11.776;2023-07-13T00:41:33;8.23;;;2.60;;
21825;SDS011;11075;47.944;11.776;2023-07-13T00:44:02;3.20;;;2.90;;
21825;SDS011;11075;47.944;11.776;2023-07-13T00:46:32;7.78;;;2.55;;
21825;SDS011;11075;47.944;11.776;2023-07-13T00:49:03;7.95;;;2.83;;
21825;SDS011;11075;47.944;11.776;2023-07-13T00:51:45;8.48;;;3.08;;
21825;SDS011;11075;47.944;11.776;2023-07-13T00:54:14;4.18;;;2.95;;
21825;SDS011;11075;47.944;11.776;2023-07-13T00:56:44;6.20;;;2.65;;
21825;SDS011;11075;47.944;11.776;2023-07-13T00:59:13;4.00;;;2.65;;
21825;SDS011;11075;47.944;11.776;2023-07-13T01:01:44;4.40;;;2.47;;
21825;SDS011;11075;47.944;11.776;2023-07-13T01:04:11;2.92;;;2.65;;
21825;SDS011;11075;47.944;11.776;2023-07-13T01:06:39;7.45;;;3.28;;
21825;SDS011;11075;47.944;11.776;2023-07-13T01:09:07;6.22;;;2.83;;
21825;SDS011;11075;47.944;11.776;2023-07-13T01:11:36;5.95;;;2.95;;
21825;SDS011;11075;47.944;11.776;2023-07-13T01:14:03;6.10;;;3.35;;
21825;SDS011;11075;47.944;11.776;2023-07-13T01:16:32;4.85;;;2.80;;
21825;SDS011;11075;47.944;11.776;2023-07-13T01:19:00;7.60;;;3.40;;
21825;SDS011;11075;47.944;11.776;2023-07-13T01:21:32;5.80;;;2.70;;
21825;SDS011;11075;47.944;11.776;2023-07-13T01:23:59;6.80;;;2.97;;
21825;SDS011;11075;47.944;11.776;2023-07-13T01:26:28;3.65;;;2.45;;
21825;SDS011;11075;47.944;11.776;2023-07-13T01:28:55;6.82;;;2.70;;
21825;SDS011;11075;47.944;11.776;2023-07-13T01:31:23;4.03;;;2.88;;
21825;SDS011;11075;47.944;11.776;2023-07-13T01:33:50;3.85;;;2.60;;
21825;SDS011;11075;47.944;11.776;2023-07-13T01:36:19;3.67;;;2.40;;
21825;SDS011;11075;47.944;11.776;2023-07-13T01:38:47;4.53;;;2.67;;
21825;SDS011;11075;47.944;11.776;2023-07-13T01:41:14;3.70;;;2.28;;
21825;SDS011;11075;47.944;11.776;2023-07-13T01:43:41;7.45;;;2.75;;
21825;SDS011;11075;47.944;11.776;2023-07-13T01:46:08;4.75;;;2.75;;
21825;SDS011;11075;47.944;11.776;2023-07-13T01:48:42;3.70;;;2.60;;
21825;SDS011;11075;47.944;11.776;2023-07-13T01:51:09;4.88;;;2.58;;
21825;SDS011;11075;47.944;11.776;2023-07-13T01:53:36;4.15;;;2.15;;
21825;SDS011;11075;47.944;11.776;2023-07-13T01:56:03;4.40;;;2.35;;
21825;SDS011;11075;47.944;11.776;2023-07-13T01:58:30;6.30;;;2.25;;
21825;SDS011;11075;47.944;11.776;2023-07-13T02:00:56;5.63;;;2.97;;
21825;SDS011;11075;47.944;11.776;2023-07-13T02:03:23;3.58;;;2.08;;
21825;SDS011;11075;47.944;11.776;2023-07-13T02:05:50;5.43;;;2.35;;
21825;SDS011;11075;47.944;11.776;2023-07-13T02:08:17;2.33;;;2.08;;
21825;SDS011;11075;47.944;11.776;2023-07-13T02:10:45;5.53;;;2.35;;
21825;SDS011;11075;47.944;11.776;2023-07-13T02:13:12;3.97;;;2.50;;
21825;SDS011;11075;47.944;11.776;2023-07-13T02:15:39;2.85;;;2.00;;
21825;SDS011;11075;47.944;11.776;2023-07-13T02:18:09;7.85;;;2.30;;
21825;SDS011;11075;47.944;11.776;2023-07-13T02:20:35;3.72;;;2.33;;
21825;SDS011;11075;47.944;11.776;2023-07-13T02:23:02;4.65;;;2.25;;
21825;SDS011;11075;47.944;11.776;2023-07-13T02:25:32;5.88;;;2.33;;
21825;SDS011;11075;47.944;11.776;2023-07-13T02:27:59;4.30;;;2.08;;
21825;SDS011;11075;47.944;11.776;2023-07-13T02:30:27;5.53;;;2.30;;
21825;SDS011;11075;47.944;11.776;2023-07-13T02:32:57;7.53;;;2.53;;
21825;SDS011;11075;47.944;11.776;2023-07-13T02:35:24;3.70;;;2.22;;
21825;SDS011;11075;47.944;11.776;2023-07-13T02:37:51;4.38;;;2.25;;
21825;SDS011;11075;47.944;11.776;2023-07-13T02:40:18;9.63;;;2.65;;
21825;SDS011;11075;47.944;11.776;2023-07-13T02:42:45;2.83;;;2.00;;
21825;SDS011;11075;47.944;11.776;2023-07-13T02:45:11;2.28;;;2.08;;
21825;SDS011;11075;47.944;11.776;2023-07-13T02:47:40;3.22;;;2.00;;
21825;SDS011;11075;47.944;11.776;2023-07-13T02:50:09;4.03;;;2.20;;
21825;SDS011;11075;47.944;11.776;2023-07-13T02:52:37;2.25;;;1.85;;
21825;SDS011;11075;47.944;11.776;2023-07-13T02:55:04;2.45;;;2.10;;
21825;SDS011;11075;47.944;11.776;2023-07-13T02:57:31;4.47;;;2.10;;
21825;SDS011;11075;47.944;11.776;2023-07-13T03:00:01;3.05;;;1.95;;
21825;SDS011;11075;47.944;11.776;2023-07-13T03:02:32;2.78;;;2.10;;
21825;SDS011;11075;47.944;11.776;2023-07-13T03:05:00;5.63;;;2.05;;
21825;SDS011;11075;47.944;11.776;2023-07-13T03:07:27;2.80;;;2.17;;
21825;SDS011;11075;47.944;11.776;2023-07-13T03:09:56;5.45;;;2.20;;
21825;SDS011;11075;47.944;11.776;2023-07-13T03:12:26;3.92;;;2.30;;
21825;SDS011;11075;47.944;11.776;2023-07-13T03:14:54;2.92;;;1.95;;
21825;SDS011;11075;47.944;11.776;2023-07-13T03:17:21;5.38;;;2.28;;
21825;SDS011;11075;47.944;11.776;2023-07-13T03:19:48;2.50;;;1.85;;
21825;SDS011;11075;47.944;11.776;2023-07-13T03:22:18;5.05;;;2.35;;
21825;SDS011;11075;47.944;11.776;2023-07-13T03:24:45;3.20;;;1.83;;
21825;SDS011;11075;47.944;11.776;2023-07-13T03:27:12;7.13;;;2.10;;
21825;SDS011;11075;47.944;11.776;2023-07-13T03:29:42;3.83;;;2.20;;
21825;SDS011;11075;47.944;11.776;2023-07-13T03:32:10;3.50;;;2.40;;
21825;SDS011;11075;47.944;11.776;2023-07-13T03:34:37;2.40;;;2.20;;
21825;SDS011;11075;47.944;11.776;2023-07-13T03:37:04;2.85;;;2.35;;
21825;SDS011;11075;47.944;11.776;2023-07-13T03:39:31;6.72;;;2.90;;
21825;SDS011;11075;47.944;11.776;2023-07-13T03:41:58;3.72;;;3.10;;
21825;SDS011;11075;47.944;11.776;2023-07-13T03:44:27;3.90;;;2.75;;
21825;SDS011;11075;47.944;11.776;2023-07-13T03:46:55;6.18;;;2.75;;
21825;SDS011;11075;47.944;11.776;2023-07-13T03:49:22;5.78;;;2.90;;
21825;SDS011;11075;47.944;11.776;2023-07-13T03:51:49;5.35;;;2.85;;
21825;SDS011;11075;47.944;11.776;2023-07-13T03:54:19;5.10;;;3.33;;
21825;SDS011;11075;47.944;11.776;2023-07-13T03:56:46;5.28;;;3.35;;
21825;SDS011;11075;47.944;11.776;2023-07-13T03:59:14;4.80;;;2.72;;
21825;SDS011;11075;47.944;11.776;2023-07-13T04:01:42;4.78;;;3.25;;
21825;SDS011;11075;47.944;11.776;2023-07-13T04:04:11;7.50;;;3.15;;
21825;SDS011;11075;47.944;11.776;2023-07-13T04:06:38;3.85;;;2.95;;
21825;SDS011;11075;47.944;11.776;2023-07-13T04:09:05;5.22;;;3.10;;
21825;SDS011;11075;47.944;11.776;2023-07-13T04:11:32;3.83;;;3.05;;
21825;SDS011;11075;47.944;11.776;2023-07-13T04:13:59;4.93;;;3.53;;
21825;SDS011;11075;47.944;11.776;2023-07-13T04:16:27;5.30;;;3.47;;
21825;SDS011;11075;47.944;11.776;2023-07-13T04:18:54;4.28;;;3.13;;
21825;SDS011;11075;47.944;11.776;2023-07-13T04:21:26;7.88;;;3.63;;
21825;SDS011;11075;47.944;11.776;2023-07-13T04:23:54;5.53;;;3.17;;
21825;SDS011;11075;47.944;11.776;2023-07-13T04:26:22;5.93;;;3.28;;
21825;SDS011;11075;47.944;11.776;2023-07-13T04:28:50;3.80;;;3.08;;
21825;SDS011;11075;47.944;11.776;2023-07-13T04:31:17;7.10;;;3.53;;
21825;SDS011;11075;47.944;11.776;2023-07-13T04:33:44;4.90;;;3.30;;
21825;SDS011;11075;47.944;11.776;2023-07-13T04:36:14;7.15;;;3.10;;
21825;SDS011;11075;47.944;11.776;2023-07-13T04:38:44;7.80;;;3.25;;
21825;SDS011;11075;47.944;11.776;2023-07-13T04:41:11;6.43;;;2.97;;
21825;SDS011;11075;47.944;11.776;2023-07-13T04:43:39;5.50;;;3.35;;
21825;SDS011;11075;47.944;11.776;2023-07-13T04:46:07;6.95;;;3.50;;
21825;SDS011;11075;47.944;11.776;2023-07-13T04:48:37;5.82;;;3.20;;
21825;SDS011;11075;47.944;11.776;2023-07-13T04:51:04;4.22;;;3.00;;
21825;SDS011;11075;47.944;11.776;2023-07-13T04:53:30;5.55;;;3.20;;
21825;SDS011;11075;47.944;11.776;2023-07-13T04:55:58;5.57;;;2.90;;
21825;SDS011;11075;47.944;11.776;2023-07-13T04:58:25;5.57;;;3.30;;
21825;SDS011;11075;47.944;11.776;2023-07-13T05:00:53;4.25;;;2.92;;
21825;SDS011;11075;47.944;11.776;2023-07-13T05:03:26;5.22;;;2.65;;
21825;SDS011;11075;47.944;11.776;2023-07-13T05:05:57;5.65;;;3.13;;
21825;SDS011;11075;47.944;11.776;2023-07-13T05:08:25;4.88;;;3.40;;
21825;SDS011;11075;47.944;11.776;2023-07-13T05:10:52;4.32;;;2.45;;
21825;SDS011;11075;47.944;11.776;2023-07-13T05:13:19;3.50;;;2.80;;
21825;SDS011;11075;47.944;11.776;2023-07-13T05:15:47;6.25;;;2.80;;
21825;SDS011;11075;47.944;11.776;2023-07-13T05:18:23;4.30;;;2.83;;
21825;SDS011;11075;47.944;11.776;2023-07-13T05:21:06;4.38;;;2.42;;
21825;SDS011;11075;47.944;11.776;2023-07-13T05:23:35;4.32;;;2.67;;
21825;SDS011;11075;47.944;11.776;2023-07-13T05:26:03;4.80;;;2.67;;
21825;SDS011;11075;47.944;11.776;2023-07-13T05:28:35;4.72;;;2.75;;
21825;SDS011;11075;47.944;11.776;2023-07-13T05:31:03;6.22;;;2.90;;
21825;SDS011;11075;47.944;11.776;2023-07-13T05:33:31;5.32;;;2.58;;
21825;SDS011;11075;47.944;11.776;2023-07-13T05:35:58;4.43;;;2.60;;
21825;SDS011;11075;47.944;11.776;2023-07-13T05:38:27;4.57;;;2.47;;
21825;SDS011;11075;47.944;11.776;2023-07-13T05:40:54;3.88;;;2.80;;
21825;SDS011;11075;47.944;11.776;2023-07-13T05:43:22;7.82;;;2.47;;
21825;SDS011;11075;47.944;11.776;2023-07-13T05:45:52;4.65;;;2.40;;
21825;SDS011;11075;47.944;11.776;2023-07-13T05:48:20;3.20;;;2.55;;
21825;SDS011;11075;47.944;11.776;2023-07-13T05:50:47;4.28;;;2.67;;
21825;SDS011;11075;47.944;11.776;2023-07-13T05:53:15;6.03;;;2.70;;
21825;SDS011;11075;47.944;11.776;2023-07-13T05:55:42;3.53;;;3.15;;
21825;SDS011;11075;47.944;11.776;2023-07-13T05:58:11;4.75;;;2.60;;
21825;SDS011;11075;47.944;11.776;2023-07-13T06:00:38;5.07;;;2.65;;
21825;SDS011;11075;47.944;11.776;2023-07-13T06:03:05;3.90;;;2.63;;
21825;SDS011;11075;47.944;11.776;2023-07-13T06:05:33;5.70;;;2.30;;
21825;SDS011;11075;47.944;11.776;2023-07-13T06:08:02;4.43;;;2.60;;
21825;SDS011;11075;47.944;11.776;2023-07-13T06:10:33;4.93;;;2.47;;
21825;SDS011;11075;47.944;11.776;2023-07-13T06:13:01;3.15;;;2.42;;
21825;SDS011;11075;47.944;11.776;2023-07-13T06:15:29;2.92;;;2.63;;
21825;SDS011;11075;47.944;11.776;2023-07-13T06:17:56;3.17;;;2.58;;
21825;SDS011;11075;47.944;11.776;2023-07-13T06:20:23;4.70;;;2.67;;
21825;SDS011;11075;47.944;11.776;2023-07-13T06:22:50;7.78;;;2.28;;
21825;SDS011;11075;47.944;11.776;2023-07-13T06:25:17;2.80;;;2.50;;
21825;SDS011;11075;47.944;11.776;2023-07-13T06:27:44;2.53;;;2.00;;
21825;SDS011;11075;47.944;11.776;2023-07-13T06:30:11;5.20;;;2.30;;
21825;SDS011;11075;47.944;11.776;2023-07-13T06:32:47;3.63;;;2.05;;
21825;SDS011;11075;47.944;11.776;2023-07-13T06:35:14;4.03;;;2.08;;
21825;SDS011;11075;47.944;11.776;2023-07-13T06:37:41;4.63;;;2.53;;
21825;SDS011;11075;47.944;11.776;2023-07-13T06:40:08;9.98;;;2.47;;
21825;SDS011;11075;47.944;11.776;2023-07-13T06:42:35;3.75;;;2.00;;
21825;SDS011;11075;47.944;11.776;2023-07-13T06:45:02;3.75;;;1.95;;
21825;SDS011;11075;47.944;11.776;2023-07-13T06:47:29;3.42;;;2.08;;
21825;SDS011;11075;47.944;11.776;2023-07-13T06:49:59;5.43;;;2.63;;
21825;SDS011;11075;47.944;11.776;2023-07-13T06:52:26;3.33;;;2.20;;
21825;SDS011;11075;47.944;11.776;2023-07-13T06:54:53;3.35;;;2.17;;
21825;SDS011;11075;47.944;11.776;2023-07-13T06:57:21;2.35;;;1.85;;
21825;SDS011;11075;47.944;11.776;2023-07-13T06:59:48;3.10;;;2.20;;
21825;SDS011;11075;47.944;11.776;2023-07-13T07:02:14;3.60;;;1.95;;
21825;SDS011;11075;47.944;11.776;2023-07-13T07:04:41;3.25;;;2.10;;
21825;SDS011;11075;47.944;11.776;2023-07-13T07:07:08;2.28;;;2.08;;
21825;SDS011;11075;47.944;11.776;2023-07-13T07:09:35;2.42;;;2.17;;
21825;SDS011;11075;47.944;11.776;2023-07-13T07:12:02;3.60;;;2.03;;
21825;SDS011;11075;47.944;11.776;2023-07-13T07:14:30;3.72;;;2.13;;
21825;SDS011;11075;47.944;11.776;2023-07-13T07:16:58;3.58;;;2.30;;
21825;SDS011;11075;47.944;11.776;2023-07-13T07:19:27;5.25;;;2.40;;
21825;SDS011;11075;47.944;11.776;2023-07-13T07:21:56;4.85;;;2.30;;
21825;SDS011;11075;47.944;11.776;2023-07-13T07:24:23;3.58;;;2.47;;
21825;SDS011;11075;47.944;11.776;2023-07-13T07:26:50;4.35;;;2.45;;
21825;SDS011;11075;47.944;11.776;2023-07-13T07:29:19;2.08;;;1.77;;
21825;SDS011;11075;47.944;11.776;2023-07-13T07:31:50;3.63;;;2.35;;
21825;SDS011;11075;47.944;11.776;2023-07-13T07:34:32;3.40;;;2.35;;
21825;SDS011;11075;47.944;11.776;2023-07-13T07:36:59;3.80;;;1.70;;
21825;SDS011;11075;47.944;11.776;2023-07-13T07:39:30;3.60;;;2.08;;
21825;SDS011;11075;47.944;11.776;2023-07-13T07:41:57;2.90;;;2.17;;
21825;SDS011;11075;47.944;11.776;2023-07-13T07:44:24;3.60;;;2.00;;
21825;SDS011;11075;47.944;11.776;2023-07-13T07:46:51;5.55;;;2.00;;
21825;SDS011;11075;47.944;11.776;2023-07-13T07:49:18;4.85;;;1.80;;
21825;SDS011;11075;47.944;11.776;2023-07-13T07:51:45;5.72;;;2.72;;
21825;SDS011;11075;47.944;11.776;2023-07-13T07:54:12;2.40;;;2.20;;
21825;SDS011;11075;47.944;11.776;2023-07-13T07:56:47;3.45;;;1.90;;
21825;SDS011;11075;47.944;11.776;2023-07-13T07:59:34;5.90;;;2.08;;
21825;SDS011;11075;47.944;11.776;2023-07-13T08:02:06;7.13;;;2.20;;
21825;SDS011;11075;47.944;11.776;2023-07-13T08:04:53;5.57;;;2.40;;
21825;SDS011;11075;47.944;11.776;2023-07-13T08:07:23;4.80;;;2.40;;
21825;SDS011;11075;47.944;11.776;2023-07-13T08:09:53;6.63;;;2.40;;
21825;SDS011;11075;47.944;11.776;2023-07-13T08:12:20;3.80;;;2.30;;
21825;SDS011;11075;47.944;11.776;2023-07-13T08:14:50;3.72;;;2.38;;
21825;SDS011;11075;47.944;11.776;2023-07-13T08:17:20;3.67;;;2.15;;
21825;SDS011;11075;47.944;11.776;2023-07-13T08:19:47;4.20;;;2.42;;
21825;SDS011;11075;47.944;11.776;2023-07-13T08:22:14;6.40;;;2.33;;
21825;SDS011;11075;47.944;11.776;2023-07-13T08:24:41;4.35;;;2.30;;
21825;SDS011;11075;47.944;11.776;2023-07-13T08:27:11;2.70;;;2.33;;
21825;SDS011;11075;47.944;11.776;2023-07-13T08:29:38;3.78;;;2.28;;
21825;SDS011;11075;47.944;11.776;2023-07-13T08:32:06;5.38;;;2.45;;
21825;SDS011;11075;47.944;11.776;2023-07-13T08:34:36;7.68;;;2.55;;
21825;SDS011;11075;47.944;11.776;2023-07-13T08:37:03;6.15;;;2.47;;
21825;SDS011;11075;47.944;11.776;2023-07-13T08:39:30;3.88;;;2.10;;
21825;SDS011;11075;47.944;11.776;2023-07-13T08:42:00;4.95;;;2.47;;
21825;SDS011;11075;47.944;11.776;2023-07-13T08:44:40;3.92;;;2.60;;
21825;SDS011;11075;47.944;11.776;2023-07-13T08:47:33;5.20;;;2.83;;
21825;SDS011;11075;47.944;11.776;2023-07-13T08:50:04;5.90;;;2.90;;
21825;SDS011;11075;47.944;11.776;2023-07-13T08:52:36;5.25;;;3.00;;
21825;SDS011;11075;47.944;11.776;2023-07-13T08:55:11;4.30;;;2.42;;
21825;SDS011;11075;47.944;11.776;2023-07-13T08:57:41;4.10;;;2.30;;
21825;SDS011;11075;47.944;11.776;2023-07-13T09:00:11;3.83;;;2.63;;
21825;SDS011;11075;47.944;11.776;2023-07-13T09:08:08;5.07;;;2.47;;
21825;SDS011;11075;47.944;11.776;2023-07-13T09:15:53;4.35;;;2.40;;
21825;SDS011;11075;47.944;11.776;2023-07-13T09:23:28;5.13;;;2.10;;
21825;SDS011;11075;47.944;11.776;2023-07-13T09:26:06;3.92;;;2.00;;
21825;SDS011;11075;47.944;11.776;2023-07-13T09:28:57;5.07;;;2.50;;
21825;SDS011;11075;47.944;11.776;2023-07-13T09:31:32;3.58;;;2.10;;
21825;SDS011;11075;47.944;11.776;2023-07-13T09:34:02;3.40;;;2.35;;
21825;SDS011;11075;47.944;11.776;2023-07-13T09:36:31;3.40;;;2.60;;
21825;SDS011;11075;47.944;11.776;2023-07-13T09:44:35;5.35;;;2.30;;
21825;SDS011;11075;47.944;11.776;2023-07-13T09:47:12;5.45;;;2.63;;
21825;SDS011;11075;47.944;11.776;2023-07-13T09:49:43;7.40;;;2.47;;
21825;SDS011;11075;47.944;11.776;2023-07-13T09:52:14;5.00;;;2.83;;
21825;SDS011;11075;47.944;11.776;2023-07-13T09:54:46;4.78;;;2.75;;
21825;SDS011;11075;47.944;11.776;2023-07-13T09:57:16;2.38;;;1.92;;
21825;SDS011;11075;47.944;11.776;2023-07-13T09:59:50;5.65;;;2.28;;
21825;SDS011;11075;47.944;11.776;2023-07-13T10:02:34;4.22;;;2.10;;
21825;SDS011;11075;47.944;11.776;2023-07-13T10:05:03;6.88;;;2.70;;
21825;SDS011;11075;47.944;11.776;2023-07-13T10:07:39;5.75;;;2.88;;
21825;SDS011;11075;47.944;11.776;2023-07-13T10:10:14;3.53;;;2.42;;
21825;SDS011;11075;47.944;11.776;2023-07-13T10:12:44;3.60;;;2.10;;
21825;SDS011;11075;47.944;11.776;2023-07-13T10:15:18;2.50;;;2.30;;
21825;SDS011;11075;47.944;11.776;2023-07-13T10:17:54;8.77;;;2.50;;
21825;SDS011;11075;47.944;11.776;2023-07-13T10:20:25;5.13;;;2.33;;
21825;SDS011;11075;47.944;11.776;2023-07-13T10:23:04;5.78;;;2.72;;
21825;SDS011;11075;47.944;11.776;2023-07-13T10:25:38;4.20;;;2.25;;
21825;SDS011;11075;47.944;11.776;2023-07-13T10:28:25;4.30;;;2.50;;
21825;SDS011;11075;47.944;11.776;2023-07-13T10:30:55;5.90;;;2.70;;
21825;SDS011;11075;47.944;11.776;2023-07-13T10:33:25;5.28;;;2.22;;
21825;SDS011;11075;47.944;11.776;2023-07-13T10:36:12;3.17;;;2.25;;
21825;SDS011;11075;47.944;11.776;2023-07-13T10:38:45;3.75;;;2.17;;
21825;SDS011;11075;47.944;11.776;2023-07-13T10:41:18;3.83;;;2.25;;
21825;SDS011;11075;47.944;11.776;2023-07-13T10:43:48;5.05;;;2.20;;
21825;SDS011;11075;47.944;11.776;2023-07-13T10:46:18;7.47;;;2.30;;
21825;SDS011;11075;47.944;11.776;2023-07-13T10:48:48;4.57;;;2.08;;
21825;SDS011;11075;47.944;11.776;2023-07-13T10:51:18;5.20;;;2.30;;
21825;SDS011;11075;47.944;11.776;2023-07-13T10:53:47;3.72;;;2.40;;
21825;SDS011;11075;47.944;11.776;2023-07-13T10:56:35;4.90;;;2.10;;
21825;SDS011;11075;47.944;11.776;2023-07-13T11:04:08;3.75;;;2.10;;
21825;SDS011;11075;47.944;11.776;2023-07-13T11:06:40;9.90;;;2.20;;
21825;SDS011;11075;47.944;11.776;2023-07-13T11:09:18;5.72;;;2.00;;
21825;SDS011;11075;47.944;11.776;2023-07-13T11:11:45;3.72;;;1.60;;
21825;SDS011;11075;47.944;11.776;2023-07-13T11:25:43;6.78;;;1.60;;
21825;SDS011;11075;47.944;11.776;2023-07-13T11:36:07;6.18;;;2.60;;
21825;SDS011;11075;47.944;11.776;2023-07-13T11:41:19;4.40;;;1.23;;
21825;SDS011;11075;47.944;11.776;2023-07-13T11:43:49;2.90;;;1.48;;
21825;SDS011;11075;47.944;11.776;2023-07-13T11:46:21;3.28;;;1.50;;
21825;SDS011;11075;47.944;11.776;2023-07-13T11:48:53;4.53;;;1.45;;
21825;SDS011;11075;47.944;11.776;2023-07-13T11:51:25;2.75;;;1.60;;
21825;SDS011;11075;47.944;11.776;2023-07-13T11:53:55;2.58;;;1.00;;
21825;SDS011;11075;47.944;11.776;2023-07-13T11:56:24;3.60;;;1.20;;
21825;SDS011;11075;47.944;11.776;2023-07-13T11:58:53;4.05;;;1.55;;
21825;SDS011;11075;47.944;11.776;2023-07-13T12:01:24;2.45;;;1.20;;
21825;SDS011;11075;47.944;11.776;2023-07-13T12:03:53;1.85;;;1.00;;
21825;SDS011;11075;47.944;11.776;2023-07-13T12:06:25;7.32;;;1.50;;
21825;SDS011;11075;47.944;11.776;2023-07-13T12:09:01;6.35;;;1.42;;
21825;SDS011;11075;47.944;11.776;2023-07-13T12:11:42;5.15;;;1.20;;
21825;SDS011;11075;47.944;11.776;2023-07-13T12:14:13;2.72;;;1.10;;
21825;SDS011;11075;47.944;11.776;2023-07-13T12:16:45;2.55;;;1.20;;
21825;SDS011;11075;47.944;11.776;2023-07-13T12:19:26;7.53;;;1.25;;
21825;SDS011;11075;47.944;11.776;2023-07-13T12:21:55;2.40;;;1.30;;
21825;SDS011;11075;47.944;11.776;2023-07-13T12:24:25;2.88;;;1.45;;
21825;SDS011;11075;47.944;11.776;2023-07-13T12:26:58;2.72;;;0.90;;
21825;SDS011;11075;47.944;11.776;2023-07-13T12:29:28;2.90;;;1.00;;
21825;SDS011;11075;47.944;11.776;2023-07-13T12:31:55;2.85;;;1.02;;
21825;SDS011;11075;47.944;11.776;2023-07-13T12:34:23;2.13;;;1.00;;
21825;SDS011;11075;47.944;11.776;2023-07-13T12:36:53;4.38;;;1.35;;
21825;SDS011;11075;47.944;11.776;2023-07-13T12:44:47;5.00;;;1.40;;
21825;SDS011;11075;47.944;11.776;2023-07-13T12:47:15;3.60;;;1.30;;
21825;SDS011;11075;47.944;11.776;2023-07-13T12:49:43;2.92;;;1.17;;
21825;SDS011;11075;47.944;11.776;2023-07-13T12:52:19;2.53;;;1.20;;
21825;SDS011;11075;47.944;11.776;2023-07-13T12:55:11;2.50;;;1.10;;
21825;SDS011;11075;47.944;11.776;2023-07-13T12:57:50;3.03;;;1.40;;
21825;SDS011;11075;47.944;11.776;2023-07-13T13:00:24;2.78;;;1.02;;
21825;SDS011;11075;47.944;11.776;2023-07-13T13:03:17;2.88;;;1.50;;
21825;SDS011;11075;47.944;11.776;2023-07-13T13:05:56;6.95;;;1.30;;
21825;SDS011;11075;47.944;11.776;2023-07-13T13:08:26;4.28;;;1.10;;
21825;SDS011;11075;47.944;11.776;2023-07-13T13:10:53;7.15;;;1.27;;
21825;SDS011;11075;47.944;11.776;2023-07-13T13:13:20;3.15;;;1.27;;
21825;SDS011;11075;47.944;11.776;2023-07-13T13:15:47;4.78;;;1.50;;
21825;SDS011;11075;47.944;11.776;2023-07-13T13:18:15;1.95;;;1.25;;
21825;SDS011;11075;47.944;11.776;2023-07-13T13:20:46;2.65;;;1.40;;
21825;SDS011;11075;47.944;11.776;2023-07-13T13:23:14;7.53;;;1.73;;
21825;SDS011;11075;47.944;11.776;2023-07-13T13:25:47;3.97;;;1.27;;
21825;SDS011;11075;47.944;11.776;2023-07-13T13:28:18;3.63;;;1.38;;
21825;SDS011;11075;47.944;11.776;2023-07-13T13:30:47;5.30;;;1.30;;
21825;SDS011;11075;47.944;11.776;2023-07-13T13:33:17;3.45;;;1.25;;
21825;SDS011;11075;47.944;11.776;2023-07-13T13:35:46;2.20;;;1.40;;
21825;SDS011;11075;47.944;11.776;2023-07-13T13:40:44;2.47;;;1.20;;
21825;SDS011;11075;47.944;11.776;2023-07-13T13:43:22;3.13;;;1.35;;
21825;SDS011;11075;47.944;11.776;2023-07-13T13:45:54;3.05;;;1.30;;
21825;SDS011;11075;47.944;11.776;2023-07-13T13:48:29;3.70;;;1.30;;
21825;SDS011;11075;47.944;11.776;2023-07-13T13:50:58;2.85;;;1.20;;
21825;SDS011;11075;47.944;11.776;2023-07-13T13:53:27;7.68;;;1.80;;
21825;SDS011;11075;47.944;11.776;2023-07-13T13:55:54;2.50;;;1.48;;
21825;SDS011;11075;47.944;11.776;2023-07-13T13:58:21;4.55;;;1.13;;
21825;SDS011;11075;47.944;11.776;2023-07-13T14:00:48;4.20;;;1.30;;
21825;SDS011;11075;47.944;11.776;2023-07-13T14:03:17;4.93;;;1.63;;
21825;SDS011;11075;47.944;11.776;2023-07-13T14:05:45;2.30;;;1.30;;
21825;SDS011;11075;47.944;11.776;2023-07-13T14:08:16;2.30;;;1.58;;
21825;SDS011;11075;47.944;11.776;2023-07-13T14:10:46;2.35;;;1.60;;
21825;SDS011;11075;47.944;11.776;2023-07-13T14:13:35;3.10;;;1.50;;
21825;SDS011;11075;47.944;11.776;2023-07-13T14:16:17;8.65;;;1.80;;
21825;SDS011;11075;47.944;11.776;2023-07-13T14:18:46;2.38;;;1.40;;
21825;SDS011;11075;47.944;11.776;2023-07-13T14:21:18;4.65;;;1.38;;
21825;SDS011;11075;47.944;11.776;2023-07-13T14:23:47;2.55;;;1.30;;
21825;SDS011;11075;47.944;11.776;2023-07-13T14:26:16;3.08;;;1.50;;
21825;SDS011;11075;47.944;11.776;2023-07-13T14:28:49;1.60;;;1.30;;
21825;SDS011;11075;47.944;11.776;2023-07-13T14:31:23;2.20;;;1.10;;
21825;SDS011;11075;47.944;11.776;2023-07-13T14:33:56;4.45;;;1.88;;
21825;SDS011;11075;47.944;11.776;2023-07-13T14:36:25;4.00;;;1.50;;
21825;SDS011;11075;47.944;11.776;2023-07-13T14:38:53;4.78;;;1.35;;
21825;SDS011;11075;47.944;11.776;2023-07-13T14:41:21;4.45;;;1.17;;
21825;SDS011;11075;47.944;11.776;2023-07-13T14:43:48;5.45;;;1.35;;
21825;SDS011;11075;47.944;11.776;2023-07-13T14:46:21;3.08;;;1.50;;
21825;SDS011;11075;47.944;11.776;2023-07-13T14:51:33;4.05;;;2.00;;
21825;SDS011;11075;47.944;11.776;2023-07-13T14:54:01;3.55;;;1.40;;
21825;SDS011;11075;47.944;11.776;2023-07-13T14:56:30;2.28;;;1.30;;
21825;SDS011;11075;47.944;11.776;2023-07-13T14:58:57;1.65;;;1.30;;
21825;SDS011;11075;47.944;11.776;2023-07-13T15:01:24;3.92;;;1.50;;
21825;SDS011;11075;47.944;11.776;2023-07-13T15:03:51;1.80;;;1.20;;
21825;SDS011;11075;47.944;11.776;2023-07-13T15:06:19;2.17;;;1.25;;
21825;SDS011;11075;47.944;11.776;2023-07-13T15:08:46;5.25;;;2.17;;
21825;SDS011;11075;47.944;11.776;2023-07-13T15:11:15;5.50;;;1.00;;
21825;SDS011;11075;47.944;11.776;2023-07-13T15:13:43;1.52;;;1.20;;
21825;SDS011;11075;47.944;11.776;2023-07-13T15:16:18;1.35;;;1.10;;
21825;SDS011;11075;47.944;11.776;2023-07-13T15:18:51;3.38;;;1.42;;
21825;SDS011;11075;47.944;11.776;2023-07-13T15:21:22;2.55;;;1.27;;
21825;SDS011;11075;47.944;11.776;2023-07-13T15:23:51;1.55;;;1.05;;
21825;SDS011;11075;47.944;11.776;2023-07-13T15:26:18;3.25;;;1.13;;
21825;SDS011;11075;47.944;11.776;2023-07-13T15:28:46;2.20;;;1.20;;
21825;SDS011;11075;47.944;11.776;2023-07-13T15:31:23;4.18;;;1.10;;
21825;SDS011;11075;47.944;11.776;2023-07-13T15:33:52;3.00;;;1.35;;
21825;SDS011;11075;47.944;11.776;2023-07-13T15:36:21;1.95;;;1.25;;
21825;SDS011;11075;47.944;11.776;2023-07-13T15:38:50;2.72;;;1.13;;
21825;SDS011;11075;47.944;11.776;2023-07-13T15:41:26;2.70;;;1.20;;
21825;SDS011;11075;47.944;11.776;2023-07-13T15:43:58;2.38;;;1.20;;
21825;SDS011;11075;47.944;11.776;2023-07-13T15:46:26;1.83;;;1.00;;
21825;SDS011;11075;47.944;11.776;2023-07-13T15:48:55;4.45;;;1.27;;